Time;durP1;ratioP1;P1;durP2;ratioP2;P2;SDS_P1;SDS_P2;PMS_P1;PMS_P2;Temp;Humidity;BMP_temperature;BMP_pressure;BME280_temperature;BME280_humidity;BME280_pressure;Samples;Min_cycle;Max_cycle;Signal;HPM_P1;HPM_P2
2024/01/16 00:01:36;;;;;;;9.73;2.05;;;;;;;;;;5093474;28;20016;-28
2024/01/16 00:04:01;;;;;;;10.63;1.93;;;;;;;;;;5093222;28;20499;-28
2024/01/16 00:06:26;;;;;;;15.13;2.50;;;;;;;;;;5093269;28;20273;-28
2024/01/16 00:08:52;;;;;;;6.50;1.50;;;;;;;;;;5093122;28;20379;-28
2024/01/16 00:11:17;;;;;;;16.60;2.65;;;;;;;;;;5092934;28;20266;-28
2024/01/16 00:13:42;;;;;;;5.57;1.27;;;;;;;;;;5093113;28;20119;-28
2024/01/16 00:16:07;;;;;;;9.20;1.45;;;;;;;;;;5093664;28;20132;-28
2024/01/16 00:18:32;;;;;;;9.70;1.43;;;;;;;;;;5092947;28;20049;-28
2024/01/16 00:21:00;;;;;;;10.50;1.83;;;;;;;;;;5093588;28;20255;-28
2024/01/16 00:23:25;;;;;;;11.85;1.60;;;;;;;;;;5097366;28;20043;-28
2024/01/16 00:25:50;;;;;;;7.78;1.98;;;;;;;;;;5096824;28;20181;-28
2024/01/16 00:28:19;;;;;;;6.37;1.80;;;;;;;;;;5097341;28;20013;-28
2024/01/16 00:30:44;;;;;;;13.80;2.17;;;;;;;;;;5097103;28;20328;-28
2024/01/16 00:33:10;;;;;;;7.53;2.03;;;;;;;;;;5096988;28;20024;-28
2024/01/16 00:35:35;;;;;;;5.57;2.00;;;;;;;;;;5096961;28;20091;-28
2024/01/16 00:38:00;;;;;;;9.52;2.20;;;;;;;;;;5097060;28;20012;-28
2024/01/16 00:40:25;;;;;;;9.77;2.05;;;;;;;;;;5096783;28;20091;-27
2024/01/16 00:42:51;;;;;;;6.90;1.77;;;;;;;;;;5097127;28;20016;-28
2024/01/16 00:45:17;;;;;;;6.15;1.70;;;;;;;;;;5096442;28;20319;-28
2024/01/16 00:47:42;;;;;;;8.45;1.98;;;;;;;;;;5096465;28;20026;-28
2024/01/16 00:50:09;;;;;;;5.75;1.75;;;;;;;;;;5096009;28;20020;-28
2024/01/16 00:52:34;;;;;;;9.20;1.83;;;;;;;;;;5096189;28;20028;-28
2024/01/16 00:54:59;;;;;;;8.00;1.92;;;;;;;;;;5096175;28;20072;-28
2024/01/16 00:57:24;;;;;;;14.52;2.33;;;;;;;;;;5095813;28;20019;-28
2024/01/16 00:59:50;;;;;;;10.15;2.22;;;;;;;;;;5095793;28;20019;-28
2024/01/16 01:02:15;;;;;;;11.23;2.15;;;;;;;;;;5096077;28;20012;-28
2024/01/16 01:04:41;;;;;;;9.57;1.90;;;;;;;;;;5096098;28;20020;-28
2024/01/16 01:07:07;;;;;;;12.55;2.20;;;;;;;;;;5096027;28;20282;-28
2024/01/16 01:09:32;;;;;;;11.88;1.60;;;;;;;;;;5096299;28;20019;-28
2024/01/16 01:11:57;;;;;;;9.13;1.90;;;;;;;;;;5096204;28;20153;-28
2024/01/16 01:14:22;;;;;;;11.23;1.70;;;;;;;;;;5095917;28;20509;-28
2024/01/16 01:16:47;;;;;;;7.63;2.22;;;;;;;;;;5096094;28;20023;-28
2024/01/16 01:19:13;;;;;;;5.43;2.00;;;;;;;;;;5095731;28;20098;-28
2024/01/16 01:21:38;;;;;;;12.68;2.28;;;;;;;;;;5096035;28;20015;-28
2024/01/16 01:24:03;;;;;;;11.07;2.35;;;;;;;;;;5095761;28;20012;-28
2024/01/16 01:26:29;;;;;;;10.50;2.08;;;;;;;;;;5095964;28;20016;-28
2024/01/16 01:28:54;;;;;;;7.17;2.17;;;;;;;;;;5095619;28;20095;-28
2024/01/16 01:31:19;;;;;;;10.00;2.40;;;;;;;;;;5095521;28;20257;-28
2024/01/16 01:33:44;;;;;;;6.20;1.13;;;;;;;;;;5094709;28;20250;-28
2024/01/16 01:36:09;;;;;;;6.40;1.23;;;;;;;;;;5095774;28;20254;-28
2024/01/16 01:38:35;;;;;;;4.03;1.00;;;;;;;;;;5095359;28;20068;-28
2024/01/16 01:41:00;;;;;;;6.13;1.05;;;;;;;;;;5095228;28;20040;-28
2024/01/16 01:43:25;;;;;;;1.70;0.80;;;;;;;;;;5095557;28;20107;-28
2024/01/16 01:45:59;;;;;;;6.00;0.73;;;;;;;;;;5094986;28;20251;-28
2024/01/16 01:48:25;;;;;;;9.05;0.70;;;;;;;;;;5094323;28;20024;-28
2024/01/16 01:50:50;;;;;;;3.22;0.50;;;;;;;;;;5095719;28;20086;-28
2024/01/16 01:53:15;;;;;;;3.10;0.68;;;;;;;;;;5095459;28;20016;-28
2024/01/16 01:55:41;;;;;;;2.28;0.63;;;;;;;;;;5095132;28;20073;-28
2024/01/16 01:58:06;;;;;;;3.85;0.68;;;;;;;;;;5095183;28;20050;-28
2024/01/16 02:00:32;;;;;;;2.03;0.47;;;;;;;;;;5095001;28;20487;-28
2024/01/16 02:02:57;;;;;;;5.20;0.57;;;;;;;;;;5095002;28;20032;-28
2024/01/16 02:05:22;;;;;;;4.07;0.82;;;;;;;;;;5094765;28;20020;-28
2024/01/16 02:07:47;;;;;;;4.07;0.70;;;;;;;;;;5095404;28;20060;-28
2024/01/16 02:10:12;;;;;;;2.08;0.70;;;;;;;;;;5094830;28;20065;-28
2024/01/16 02:12:37;;;;;;;5.18;1.10;;;;;;;;;;5094628;28;20157;-28
2024/01/16 02:15:03;;;;;;;2.28;1.08;;;;;;;;;;5094770;28;20031;-28
2024/01/16 02:17:28;;;;;;;2.97;0.98;;;;;;;;;;5094835;28;20032;-28
2024/01/16 02:19:53;;;;;;;3.47;0.88;;;;;;;;;;5095187;28;20016;-28
2024/01/16 02:22:21;;;;;;;3.70;0.93;;;;;;;;;;5094609;28;20016;-28
2024/01/16 02:24:46;;;;;;;4.88;0.75;;;;;;;;;;5076341;28;20274;-28
2024/01/16 02:27:11;;;;;;;2.08;0.90;;;;;;;;;;5094775;28;20362;-28
2024/01/16 02:29:40;;;;;;;10.85;1.42;;;;;;;;;;5094758;28;20510;-28
2024/01/16 02:32:06;;;;;;;3.38;1.15;;;;;;;;;;5094422;28;20071;-28
2024/01/16 02:34:31;;;;;;;4.78;0.95;;;;;;;;;;5094888;28;20012;-28
2024/01/16 02:36:56;;;;;;;3.85;1.30;;;;;;;;;;5094635;28;20133;-28
2024/01/16 02:39:21;;;;;;;8.30;2.07;;;;;;;;;;5094870;28;20024;-28
2024/01/16 02:41:46;;;;;;;9.50;1.67;;;;;;;;;;5094195;28;20813;-28
2024/01/16 02:44:12;;;;;;;5.28;1.20;;;;;;;;;;5094255;28;20254;-28
2024/01/16 02:46:38;;;;;;;3.33;1.20;;;;;;;;;;5094454;28;20146;-28
2024/01/16 02:49:04;;;;;;;6.95;1.25;;;;;;;;;;5094399;28;20052;-28
2024/01/16 02:51:29;;;;;;;2.83;1.10;;;;;;;;;;5094063;28;20112;-28
2024/01/16 02:53:54;;;;;;;3.15;0.88;;;;;;;;;;5094061;28;20016;-28
2024/01/16 02:56:19;;;;;;;3.43;1.10;;;;;;;;;;5094015;28;20023;-28
2024/01/16 02:58:44;;;;;;;8.20;1.42;;;;;;;;;;5093908;28;20369;-26
2024/01/16 03:01:09;;;;;;;4.43;0.80;;;;;;;;;;5094473;28;20020;-26
2024/01/16 03:03:35;;;;;;;2.43;1.03;;;;;;;;;;5093871;28;20478;-28
2024/01/16 03:06:00;;;;;;;4.93;0.60;;;;;;;;;;5093703;28;20301;-28
2024/01/16 03:08:25;;;;;;;1.75;0.70;;;;;;;;;;5093835;28;20246;-28
2024/01/16 03:10:50;;;;;;;3.70;0.90;;;;;;;;;;5094010;28;20024;-28
2024/01/16 03:13:16;;;;;;;5.03;1.13;;;;;;;;;;5093741;28;20371;-28
2024/01/16 03:15:41;;;;;;;5.90;1.05;;;;;;;;;;5093983;28;20268;-28
2024/01/16 03:18:06;;;;;;;2.20;0.53;;;;;;;;;;5093547;28;20054;-28
2024/01/16 03:20:31;;;;;;;1.48;0.70;;;;;;;;;;5093662;28;20265;-27
2024/01/16 03:22:56;;;;;;;4.53;0.98;;;;;;;;;;5093934;28;20530;-28
2024/01/16 03:25:22;;;;;;;4.53;1.20;;;;;;;;;;5093552;28;20351;-28
2024/01/16 03:27:47;;;;;;;2.83;0.70;;;;;;;;;;5093848;28;20261;-28
2024/01/16 03:30:12;;;;;;;4.18;1.40;;;;;;;;;;5093779;28;20020;-28
2024/01/16 03:32:38;;;;;;;2.65;0.93;;;;;;;;;;5093717;28;20016;-28
2024/01/16 03:35:04;;;;;;;1.58;0.50;;;;;;;;;;5093524;28;20012;-27
2024/01/16 03:37:29;;;;;;;2.67;1.10;;;;;;;;;;5094096;28;20024;-26
2024/01/16 03:39:54;;;;;;;2.97;1.02;;;;;;;;;;5093749;28;20456;-26
2024/01/16 03:42:20;;;;;;;6.95;1.45;;;;;;;;;;5093356;28;20066;-26
2024/01/16 03:44:45;;;;;;;2.90;0.88;;;;;;;;;;5093373;28;20039;-27
2024/01/16 03:47:10;;;;;;;4.73;0.90;;;;;;;;;;5093357;28;20360;-26
2024/01/16 03:49:35;;;;;;;3.30;0.90;;;;;;;;;;5093341;28;20330;-26
2024/01/16 03:52:00;;;;;;;6.63;0.80;;;;;;;;;;5093275;28;20249;-26
2024/01/16 03:54:25;;;;;;;6.17;0.93;;;;;;;;;;5093245;28;20325;-26
2024/01/16 03:56:51;;;;;;;7.95;1.10;;;;;;;;;;5094563;28;20246;-26
2024/01/16 03:59:16;;;;;;;6.03;1.08;;;;;;;;;;5097788;28;20024;-26
2024/01/16 04:01:42;;;;;;;5.77;1.37;;;;;;;;;;5097303;28;20022;-26
2024/01/16 04:04:08;;;;;;;9.55;1.00;;;;;;;;;;5097518;28;20399;-26
2024/01/16 04:06:33;;;;;;;3.03;0.63;;;;;;;;;;5097221;28;20450;-26
2024/01/16 04:08:58;;;;;;;2.78;0.63;;;;;;;;;;5097528;28;20027;-26
2024/01/16 04:11:23;;;;;;;2.80;0.60;;;;;;;;;;5097648;28;20008;-26
2024/01/16 04:13:49;;;;;;;5.25;0.77;;;;;;;;;;5097403;28;20347;-26
2024/01/16 04:16:15;;;;;;;4.32;0.90;;;;;;;;;;5097320;28;20012;-26
2024/01/16 04:18:42;;;;;;;5.10;0.98;;;;;;;;;;5097012;28;20020;-26
2024/01/16 04:21:07;;;;;;;2.95;1.10;;;;;;;;;;5097306;28;20421;-26
2024/01/16 04:23:32;;;;;;;5.47;1.20;;;;;;;;;;5097222;28;20020;-26
2024/01/16 04:25:58;;;;;;;4.50;1.00;;;;;;;;;;5096880;28;20306;-26
2024/01/16 04:28:23;;;;;;;3.70;0.80;;;;;;;;;;5096853;28;20030;-26
2024/01/16 04:30:48;;;;;;;4.38;0.93;;;;;;;;;;5096796;28;20024;-26
2024/01/16 04:33:13;;;;;;;4.85;1.20;;;;;;;;;;5096969;28;20482;-26
2024/01/16 04:35:38;;;;;;;4.32;1.20;;;;;;;;;;5096783;28;20027;-26
2024/01/16 04:38:04;;;;;;;4.05;1.00;;;;;;;;;;5096463;28;20432;-30
2024/01/16 04:40:29;;;;;;;2.28;1.02;;;;;;;;;;5096764;28;20130;-28
2024/01/16 04:42:54;;;;;;;4.37;1.20;;;;;;;;;;5078302;28;20019;-27
2024/01/16 04:45:20;;;;;;;3.40;1.27;;;;;;;;;;5078624;28;20290;-26
2024/01/16 04:47:45;;;;;;;2.92;1.30;;;;;;;;;;5097005;28;20024;-27
2024/01/16 04:50:10;;;;;;;4.47;0.95;;;;;;;;;;5096413;28;20024;-26
2024/01/16 04:52:35;;;;;;;7.20;1.23;;;;;;;;;;5096854;28;20024;-26
2024/01/16 04:55:00;;;;;;;6.43;1.10;;;;;;;;;;5096846;28;20107;-27
2024/01/16 04:57:26;;;;;;;3.55;1.02;;;;;;;;;;5096743;28;20062;-27
2024/01/16 04:59:51;;;;;;;8.67;1.60;;;;;;;;;;5096058;28;20020;-26
2024/01/16 05:02:17;;;;;;;4.67;1.20;;;;;;;;;;5096120;28;20376;-26
2024/01/16 05:04:42;;;;;;;5.93;1.10;;;;;;;;;;5096389;28;20274;-28
2024/01/16 05:07:07;;;;;;;2.85;0.80;;;;;;;;;;5095795;28;20062;-27
2024/01/16 05:09:32;;;;;;;4.72;1.25;;;;;;;;;;5096544;28;20017;-26
2024/01/16 05:11:58;;;;;;;6.93;1.42;;;;;;;;;;5095813;28;20478;-26
2024/01/16 05:14:25;;;;;;;5.13;1.30;;;;;;;;;;5096437;28;20020;-27
2024/01/16 05:16:50;;;;;;;6.82;1.20;;;;;;;;;;5096125;28;20016;-27
2024/01/16 05:19:15;;;;;;;6.57;1.90;;;;;;;;;;5095786;28;20513;-27
2024/01/16 05:21:41;;;;;;;6.33;1.10;;;;;;;;;;5095721;28;20021;-27
2024/01/16 05:24:06;;;;;;;10.88;1.55;;;;;;;;;;5095709;28;20257;-28
2024/01/16 05:26:31;;;;;;;6.78;1.27;;;;;;;;;;5095726;28;20023;-27
2024/01/16 05:28:56;;;;;;;8.33;1.47;;;;;;;;;;5096278;28;20112;-27
2024/01/16 05:31:21;;;;;;;3.65;1.17;;;;;;;;;;5095942;28;20280;-27
2024/01/16 05:33:46;;;;;;;5.70;1.20;;;;;;;;;;5095653;28;20020;-27
2024/01/16 05:36:12;;;;;;;10.33;1.40;;;;;;;;;;5095600;28;20024;-27
2024/01/16 05:38:37;;;;;;;7.83;1.70;;;;;;;;;;5095474;28;20277;-27
2024/01/16 05:41:03;;;;;;;8.02;1.50;;;;;;;;;;5095422;28;20255;-27
2024/01/16 05:43:29;;;;;;;8.82;1.48;;;;;;;;;;5096472;28;20024;-27
2024/01/16 05:45:54;;;;;;;7.55;1.60;;;;;;;;;;5095662;28;20019;-28
2024/01/16 05:48:20;;;;;;;10.03;2.00;;;;;;;;;;5095359;28;20375;-27
2024/01/16 05:50:45;;;;;;;7.40;1.93;;;;;;;;;;5095872;28;20249;-27
2024/01/16 05:53:10;;;;;;;9.98;1.65;;;;;;;;;;5095257;28;20265;-27
2024/01/16 05:55:36;;;;;;;7.67;1.90;;;;;;;;;;5095834;28;20031;-27
2024/01/16 05:58:02;;;;;;;3.90;1.27;;;;;;;;;;5095065;28;20274;-27
2024/01/16 06:00:27;;;;;;;9.48;1.88;;;;;;;;;;5095198;28;20098;-27
2024/01/16 06:02:52;;;;;;;6.13;1.83;;;;;;;;;;5095340;28;20016;-28
2024/01/16 06:05:17;;;;;;;7.60;1.50;;;;;;;;;;5094905;28;20020;-27
2024/01/16 06:07:42;;;;;;;10.33;1.53;;;;;;;;;;5094962;28;20661;-27
2024/01/16 06:10:08;;;;;;;7.40;2.10;;;;;;;;;;5095178;28;20269;-27
2024/01/16 06:12:33;;;;;;;7.68;1.60;;;;;;;;;;5093875;28;20467;-27
2024/01/16 06:14:59;;;;;;;3.95;1.25;;;;;;;;;;5092692;28;20023;-27
2024/01/16 06:17:24;;;;;;;2.65;1.40;;;;;;;;;;5092610;28;20046;-27
2024/01/16 06:19:49;;;;;;;8.00;1.83;;;;;;;;;;5092099;28;20069;-27
2024/01/16 06:22:14;;;;;;;3.17;1.43;;;;;;;;;;5092579;28;20605;-27
2024/01/16 06:24:39;;;;;;;3.13;1.10;;;;;;;;;;5092484;28;20295;-27
2024/01/16 06:27:06;;;;;;;7.93;1.20;;;;;;;;;;5093723;28;20348;-27
2024/01/16 06:29:31;;;;;;;4.28;1.55;;;;;;;;;;5094620;28;20255;-27
2024/01/16 06:31:56;;;;;;;6.32;1.60;;;;;;;;;;5095082;28;20016;-27
2024/01/16 06:34:21;;;;;;;5.30;1.13;;;;;;;;;;5094742;28;20020;-28
2024/01/16 06:36:46;;;;;;;4.43;1.50;;;;;;;;;;5094425;28;20062;-27
2024/01/16 06:39:13;;;;;;;4.60;1.70;;;;;;;;;;5094310;28;20760;-27
2024/01/16 06:41:39;;;;;;;3.00;1.30;;;;;;;;;;5094858;28;20720;-27
2024/01/16 06:44:04;;;;;;;9.38;1.63;;;;;;;;;;5094338;28;20091;-28
2024/01/16 06:46:29;;;;;;;4.17;1.70;;;;;;;;;;5094726;28;20103;-27
2024/01/16 06:48:54;;;;;;;4.00;1.23;;;;;;;;;;5094252;28;20261;-27
2024/01/16 06:51:19;;;;;;;8.73;1.77;;;;;;;;;;5094599;28;20286;-28
2024/01/16 06:53:44;;;;;;;8.40;1.60;;;;;;;;;;5094131;28;20020;-27
2024/01/16 06:56:10;;;;;;;6.30;1.87;;;;;;;;;;5075932;28;20280;-27
2024/01/16 06:58:35;;;;;;;6.93;1.88;;;;;;;;;;5093963;28;20368;-29
2024/01/16 07:01:01;;;;;;;4.70;1.48;;;;;;;;;;5094152;28;20044;-27
2024/01/16 07:03:26;;;;;;;8.18;1.70;;;;;;;;;;5094233;28;20035;-27
2024/01/16 07:05:51;;;;;;;3.53;1.63;;;;;;;;;;5094027;28;20459;-28
2024/01/16 07:08:16;;;;;;;4.80;2.17;;;;;;;;;;5075818;28;20262;-28
2024/01/16 07:10:42;;;;;;;7.63;2.17;;;;;;;;;;5094085;28;20463;-28
2024/01/16 07:13:07;;;;;;;5.13;1.90;;;;;;;;;;5094250;28;20066;-28
2024/01/16 07:15:32;;;;;;;5.75;1.92;;;;;;;;;;5093978;28;20020;-28
2024/01/16 07:17:57;;;;;;;5.15;1.92;;;;;;;;;;5093480;28;20471;-28
2024/01/16 07:20:23;;;;;;;12.82;1.73;;;;;;;;;;5093918;28;20039;-28
2024/01/16 07:22:48;;;;;;;4.25;2.05;;;;;;;;;;5075501;28;20417;-28
2024/01/16 07:25:13;;;;;;;6.55;2.00;;;;;;;;;;5093650;28;20012;-28
2024/01/16 07:27:38;;;;;;;4.50;1.80;;;;;;;;;;5093472;28;20023;-28
2024/01/16 07:30:06;;;;;;;6.85;2.10;;;;;;;;;;5094065;28;20027;-28
2024/01/16 07:32:32;;;;;;;6.15;2.00;;;;;;;;;;5092708;28;20099;-28
2024/01/16 07:34:57;;;;;;;5.47;2.08;;;;;;;;;;5093812;28;20440;-28
2024/01/16 07:37:22;;;;;;;4.70;1.73;;;;;;;;;;5093538;28;20383;-28
2024/01/16 07:39:48;;;;;;;10.00;2.05;;;;;;;;;;5094116;28;20459;-28
2024/01/16 07:42:13;;;;;;;9.70;1.83;;;;;;;;;;5093733;28;20448;-28
2024/01/16 07:44:38;;;;;;;4.68;2.10;;;;;;;;;;5093875;28;20161;-28
2024/01/16 07:47:04;;;;;;;20.30;3.03;;;;;;;;;;5093930;28;20120;-28
2024/01/16 07:49:29;;;;;;;7.00;2.60;;;;;;;;;;5093471;28;20351;-28
2024/01/16 07:51:54;;;;;;;7.63;3.00;;;;;;;;;;5093961;28;20024;-28
2024/01/16 07:54:19;;;;;;;13.57;3.25;;;;;;;;;;5093378;28;20375;-28
2024/01/16 07:56:45;;;;;;;16.20;3.20;;;;;;;;;;5093340;28;20074;-28
2024/01/16 07:59:10;;;;;;;10.40;3.28;;;;;;;;;;5093870;28;20494;-28
2024/01/16 08:01:35;;;;;;;8.43;3.63;;;;;;;;;;5093928;28;20091;-28
2024/01/16 08:04:00;;;;;;;11.98;4.05;;;;;;;;;;5093416;28;20451;-28
2024/01/16 08:06:26;;;;;;;10.68;3.90;;;;;;;;;;5093183;28;20036;-28
2024/01/16 08:08:51;;;;;;;12.13;4.10;;;;;;;;;;5093590;28;20023;-28
2024/01/16 08:11:18;;;;;;;14.93;3.75;;;;;;;;;;5075181;28;20062;-28
2024/01/16 08:13:44;;;;;;;7.22;3.75;;;;;;;;;;5093884;28;20149;-28
2024/01/16 08:16:09;;;;;;;8.40;3.97;;;;;;;;;;5058395;28;20047;-28
2024/01/16 08:18:34;;;;;;;10.90;4.40;;;;;;;;;;5093751;28;20028;-28
2024/01/16 08:20:59;;;;;;;10.38;4.65;;;;;;;;;;5075098;28;20012;-28
2024/01/16 08:23:25;;;;;;;9.75;3.95;;;;;;;;;;5075074;28;20020;-28
2024/01/16 08:25:51;;;;;;;8.48;4.15;;;;;;;;;;5093445;28;20426;-28
2024/01/16 08:28:17;;;;;;;13.85;4.40;;;;;;;;;;5074904;28;20028;-28
2024/01/16 08:30:42;;;;;;;9.45;3.92;;;;;;;;;;5092979;28;20020;-28
2024/01/16 08:33:08;;;;;;;12.48;4.32;;;;;;;;;;5093122;28;20078;-28
2024/01/16 08:35:33;;;;;;;11.68;4.18;;;;;;;;;;5092995;28;20028;-28
2024/01/16 08:37:58;;;;;;;11.55;4.22;;;;;;;;;;5092963;28;20020;-28
2024/01/16 08:40:23;;;;;;;12.43;3.78;;;;;;;;;;5093243;28;20019;-28
2024/01/16 08:42:54;;;;;;;13.98;3.78;;;;;;;;;;5094432;28;20039;-28
2024/01/16 08:45:19;;;;;;;11.25;4.15;;;;;;;;;;5096913;28;20459;-28
2024/01/16 08:47:45;;;;;;;9.23;3.83;;;;;;;;;;5096945;28;20016;-28
2024/01/16 08:50:10;;;;;;;18.20;3.83;;;;;;;;;;5096817;28;20020;-28
2024/01/16 08:52:35;;;;;;;12.80;4.22;;;;;;;;;;5096582;28;20024;-28
2024/01/16 08:55:02;;;;;;;11.43;3.60;;;;;;;;;;5096497;28;20019;-28
2024/01/16 08:57:28;;;;;;;8.65;3.25;;;;;;;;;;5096638;28;20024;-28
2024/01/16 08:59:54;;;;;;;11.47;3.47;;;;;;;;;;5096481;28;20478;-27
2024/01/16 09:02:19;;;;;;;15.52;3.72;;;;;;;;;;5078216;28;20262;-28
2024/01/16 09:04:45;;;;;;;11.05;3.88;;;;;;;;;;5096289;28;20038;-28
2024/01/16 09:07:11;;;;;;;8.73;3.60;;;;;;;;;;5096125;28;20043;-27
2024/01/16 09:09:36;;;;;;;10.27;3.47;;;;;;;;;;5096284;28;20024;-28
2024/01/16 09:12:01;;;;;;;16.65;3.80;;;;;;;;;;5078377;28;20019;-27
2024/01/16 09:14:27;;;;;;;10.65;3.50;;;;;;;;;;5096412;28;20016;-27
2024/01/16 09:16:53;;;;;;;7.73;3.27;;;;;;;;;;5096372;28;20024;-28
2024/01/16 09:19:19;;;;;;;14.00;3.70;;;;;;;;;;5095768;28;20349;-27
2024/01/16 09:21:44;;;;;;;11.53;2.80;;;;;;;;;;5096473;28;20009;-27
2024/01/16 09:24:09;;;;;;;7.30;2.73;;;;;;;;;;5096152;28;20254;-27
2024/01/16 09:26:34;;;;;;;11.73;2.90;;;;;;;;;;5096370;28;20295;-27
2024/01/16 09:28:59;;;;;;;6.83;2.30;;;;;;;;;;5095227;28;20024;-27
2024/01/16 09:31:24;;;;;;;9.83;2.73;;;;;;;;;;5096030;28;20289;-27
2024/01/16 09:33:50;;;;;;;14.88;2.50;;;;;;;;;;5096004;28;20246;-28
2024/01/16 09:36:15;;;;;;;12.03;2.60;;;;;;;;;;5095623;28;20465;-27
2024/01/16 09:38:40;;;;;;;11.20;2.60;;;;;;;;;;5095740;28;20289;-27
2024/01/16 09:41:06;;;;;;;9.18;2.40;;;;;;;;;;5095541;28;20379;-27
2024/01/16 09:43:32;;;;;;;5.70;2.25;;;;;;;;;;5095455;28;20024;-28
2024/01/16 09:46:00;;;;;;;9.43;2.70;;;;;;;;;;5095434;28;20073;-27
2024/01/16 09:48:27;;;;;;;8.57;2.42;;;;;;;;;;5095282;28;20064;-27
2024/01/16 09:50:52;;;;;;;9.45;2.40;;;;;;;;;;5095630;28;20028;-27
2024/01/16 09:53:18;;;;;;;10.80;2.22;;;;;;;;;;5095540;28;20466;-27
2024/01/16 09:55:43;;;;;;;10.13;2.30;;;;;;;;;;5094304;28;20069;-28
2024/01/16 09:58:11;;;;;;;10.05;2.70;;;;;;;;;;5095620;28;20020;-28
2024/01/16 10:00:36;;;;;;;13.50;2.72;;;;;;;;;;5095346;28;20024;-27
2024/01/16 10:03:02;;;;;;;11.35;2.55;;;;;;;;;;5095066;28;20027;-27
2024/01/16 10:05:28;;;;;;;7.38;2.55;;;;;;;;;;5095064;28;20040;-27
2024/01/16 10:07:54;;;;;;;12.85;2.92;;;;;;;;;;5094474;28;20526;-28
2024/01/16 10:10:21;;;;;;;7.75;2.40;;;;;;;;;;5093083;28;20101;-27
2024/01/16 10:12:46;;;;;;;6.15;2.45;;;;;;;;;;5092639;28;20015;-27
2024/01/16 10:15:13;;;;;;;8.13;2.40;;;;;;;;;;5092691;28;20107;-28
2024/01/16 10:17:39;;;;;;;9.57;2.63;;;;;;;;;;5092534;28;20059;-28
2024/01/16 10:20:05;;;;;;;7.97;2.75;;;;;;;;;;5092880;28;20050;-28
2024/01/16 10:22:30;;;;;;;16.08;2.75;;;;;;;;;;5092667;28;20077;-28
2024/01/16 10:25:05;;;;;;;6.55;2.38;;;;;;;;;;5094484;28;20020;-28
2024/01/16 10:27:31;;;;;;;9.45;2.38;;;;;;;;;;5094706;28;20340;-27
2024/01/16 10:29:56;;;;;;;13.85;3.40;;;;;;;;;;5094467;28;20024;-27
2024/01/16 10:32:32;;;;;;;8.18;2.47;;;;;;;;;;5094589;28;20025;-27
2024/01/16 10:35:04;;;;;;;11.32;2.72;;;;;;;;;;5094550;28;20020;-27
2024/01/16 10:37:48;;;;;;;9.23;2.33;;;;;;;;;;5094379;28;20024;-27
2024/01/16 10:40:13;;;;;;;;;;;;;;;;;;5095039;28;20023;-27
2024/01/16 10:42:38;;;;;;;8.75;2.35;;;;;;;;;;5094841;28;19908;-27
2024/01/16 10:45:05;;;;;;;13.15;2.60;;;;;;;;;;5094426;28;20046;-28
2024/01/16 10:47:30;;;;;;;6.25;2.33;;;;;;;;;;5093852;28;20016;-27
2024/01/16 10:49:55;;;;;;;11.68;2.33;;;;;;;;;;5094473;28;20038;-27
2024/01/16 10:52:23;;;;;;;10.63;2.55;;;;;;;;;;5094088;28;20016;-27
2024/01/16 10:54:50;;;;;;;7.93;2.28;;;;;;;;;;5094128;28;20374;-27
2024/01/16 10:57:15;;;;;;;8.73;2.08;;;;;;;;;;5094251;28;20459;-27
2024/01/16 11:00:00;;;;;;;7.40;2.28;;;;;;;;;;5094077;28;20024;-28
2024/01/16 11:02:27;;;;;;;7.10;2.28;;;;;;;;;;5094433;28;20020;-28
2024/01/16 11:04:54;;;;;;;7.07;2.42;;;;;;;;;;5093901;28;20015;-28
2024/01/16 11:07:19;;;;;;;7.72;2.30;;;;;;;;;;5093646;28;20040;-28
2024/01/16 11:09:44;;;;;;;8.25;2.42;;;;;;;;;;5093949;28;20520;-28
2024/01/16 11:12:11;;;;;;;8.15;2.35;;;;;;;;;;5093905;28;20081;-28
2024/01/16 11:14:37;;;;;;;5.03;2.20;;;;;;;;;;5094014;28;20028;-28
2024/01/16 11:17:03;;;;;;;10.23;2.92;;;;;;;;;;5093941;28;20375;-28
2024/01/16 11:19:29;;;;;;;6.32;2.55;;;;;;;;;;5094058;28;20039;-28
2024/01/16 11:21:54;;;;;;;9.60;2.60;;;;;;;;;;5093529;28;20367;-28
2024/01/16 11:24:20;;;;;;;10.70;2.50;;;;;;;;;;5093710;28;20048;-28
2024/01/16 11:26:45;;;;;;;17.83;3.35;;;;;;;;;;5093615;28;20024;-28
2024/01/16 11:29:28;;;;;;;15.82;2.92;;;;;;;;;;5094212;28;20032;-29
2024/01/16 11:31:54;;;;;;;7.13;2.47;;;;;;;;;;5093211;28;20024;-28
2024/01/16 11:34:38;;;;;;;6.30;2.28;;;;;;;;;;5093603;28;20031;-28
2024/01/16 11:37:06;;;;;;;5.95;1.92;;;;;;;;;;5093464;28;20360;-28
2024/01/16 11:39:32;;;;;;;11.50;2.70;;;;;;;;;;5093938;28;20032;-29
2024/01/16 11:41:57;;;;;;;9.40;2.47;;;;;;;;;;5093449;28;20466;-28
2024/01/16 11:44:50;;;;;;;7.75;2.03;;;;;;;;;;5093359;28;20261;-28
2024/01/16 11:47:16;;;;;;;6.90;2.13;;;;;;;;;;5089495;28;20036;-28
2024/01/16 11:49:41;;;;;;;8.52;1.98;;;;;;;;;;5094087;28;20024;-28
2024/01/16 11:52:06;;;;;;;10.40;2.50;;;;;;;;;;5093877;28;20070;-28
2024/01/16 11:54:33;;;;;;;7.43;2.05;;;;;;;;;;5093882;28;20044;-28
2024/01/16 11:57:01;;;;;;;9.73;2.30;;;;;;;;;;5093386;28;20016;-27
2024/01/16 11:59:35;;;;;;;10.95;2.05;;;;;;;;;;5093049;28;20020;-28
2024/01/16 12:02:02;;;;;;;7.68;2.40;;;;;;;;;;5093797;28;20015;-27
2024/01/16 12:04:27;;;;;;;7.25;2.13;;;;;;;;;;5093456;28;20024;-27
2024/01/16 12:06:59;;;;;;;10.02;2.25;;;;;;;;;;5093139;28;20483;-27
2024/01/16 12:09:28;;;;;;;7.72;2.33;;;;;;;;;;5075094;28;20047;-28
2024/01/16 12:11:58;;;;;;;5.53;2.10;;;;;;;;;;5093142;28;20024;-27
2024/01/16 12:14:23;;;;;;;3.78;1.90;;;;;;;;;;5093027;28;20035;-27
2024/01/16 12:16:48;;;;;;;8.70;2.03;;;;;;;;;;5093652;28;20020;-27
2024/01/16 12:19:14;;;;;;;8.18;2.10;;;;;;;;;;5096529;28;20301;-27
2024/01/16 12:21:44;;;;;;;7.38;2.63;;;;;;;;;;5096954;28;20066;-28
2024/01/16 12:24:10;;;;;;;7.88;2.20;;;;;;;;;;5097032;28;20020;-28
2024/01/16 12:26:35;;;;;;;5.88;2.28;;;;;;;;;;5096936;28;20426;-28
2024/01/16 12:29:00;;;;;;;10.25;2.28;;;;;;;;;;5096895;28;20052;-28
2024/01/16 12:31:26;;;;;;;6.72;2.40;;;;;;;;;;5096785;28;20092;-28
2024/01/16 12:33:52;;;;;;;5.07;1.98;;;;;;;;;;5096991;28;20043;-28
2024/01/16 12:36:17;;;;;;;11.45;2.60;;;;;;;;;;5097007;28;20073;-28
2024/01/16 12:38:42;;;;;;;8.40;2.33;;;;;;;;;;5096486;28;20360;-28
2024/01/16 12:41:09;;;;;;;5.63;2.20;;;;;;;;;;5096480;28;20026;-28
2024/01/16 12:43:34;;;;;;;4.95;2.20;;;;;;;;;;5096746;28;20020;-28
2024/01/16 12:46:00;;;;;;;6.40;2.05;;;;;;;;;;5096469;28;20562;-28
2024/01/16 12:48:26;;;;;;;9.80;2.38;;;;;;;;;;5096773;28;20016;-28
2024/01/16 12:50:51;;;;;;;5.22;2.30;;;;;;;;;;5095443;28;20028;-28
2024/01/16 12:53:18;;;;;;;10.30;2.30;;;;;;;;;;5096483;28;20054;-28
2024/01/16 12:55:45;;;;;;;4.47;2.22;;;;;;;;;;5096576;28;20041;-27
2024/01/16 12:58:13;;;;;;;8.95;2.38;;;;;;;;;;5096214;28;20020;-28
2024/01/16 13:00:41;;;;;;;5.03;1.90;;;;;;;;;;5096188;28;20050;-28
2024/01/16 13:03:06;;;;;;;7.13;2.50;;;;;;;;;;5096789;28;20020;-28
2024/01/16 13:05:32;;;;;;;7.70;2.60;;;;;;;;;;5095125;28;20386;-28
2024/01/16 13:08:02;;;;;;;7.35;2.50;;;;;;;;;;5096345;28;20149;-27
2024/01/16 13:10:30;;;;;;;7.93;2.40;;;;;;;;;;5096377;28;20020;-28
2024/01/16 13:13:11;;;;;;;5.03;1.77;;;;;;;;;;5096245;28;20034;-28
2024/01/16 13:15:37;;;;;;;10.95;2.45;;;;;;;;;;5095967;28;20024;-27
2024/01/16 13:18:02;;;;;;;7.95;2.10;;;;;;;;;;5095864;28;20030;-28
2024/01/16 13:20:27;;;;;;;6.53;1.67;;;;;;;;;;5096063;28;20110;-28
2024/01/16 13:22:52;;;;;;;5.73;1.60;;;;;;;;;;5095845;28;20092;-27
2024/01/16 13:25:17;;;;;;;6.83;1.60;;;;;;;;;;5096062;28;20258;-28
2024/01/16 13:27:43;;;;;;;5.63;1.50;;;;;;;;;;5096358;28;20242;-28
2024/01/16 13:30:08;;;;;;;8.48;1.60;;;;;;;;;;5094342;28;20266;-28
2024/01/16 13:32:36;;;;;;;6.22;1.48;;;;;;;;;;5095719;28;20375;-27
2024/01/16 13:35:07;;;;;;;5.80;1.30;;;;;;;;;;5095910;28;20049;-27
2024/01/16 13:37:32;;;;;;;6.32;1.98;;;;;;;;;;5077401;28;20020;-27
2024/01/16 13:39:57;;;;;;;6.85;1.70;;;;;;;;;;5095790;28;20068;-28
2024/01/16 13:42:22;;;;;;;7.40;1.77;;;;;;;;;;5095421;28;20016;-28
2024/01/16 13:44:48;;;;;;;3.53;1.73;;;;;;;;;;5077228;28;20024;-28
2024/01/16 13:47:15;;;;;;;7.03;1.80;;;;;;;;;;5095654;28;20425;-27
2024/01/16 13:49:40;;;;;;;5.13;1.90;;;;;;;;;;5095215;28;20020;-28
2024/01/16 13:52:05;;;;;;;6.32;1.50;;;;;;;;;;5095164;28;20066;-27
2024/01/16 13:54:31;;;;;;;8.90;1.70;;;;;;;;;;5095425;28;20089;-27
2024/01/16 13:56:56;;;;;;;8.20;1.60;;;;;;;;;;5095421;28;20408;-27
2024/01/16 13:59:21;;;;;;;8.23;1.63;;;;;;;;;;5095339;28;20016;-28
2024/01/16 14:01:47;;;;;;;8.85;1.60;;;;;;;;;;5095096;28;20432;-28
2024/01/16 14:04:12;;;;;;;5.25;1.35;;;;;;;;;;5094923;28;20020;-27
2024/01/16 14:06:37;;;;;;;7.70;1.83;;;;;;;;;;5094758;28;20395;-27
2024/01/16 14:09:02;;;;;;;8.75;2.22;;;;;;;;;;5094992;28;20379;-27
2024/01/16 14:11:28;;;;;;;8.30;1.67;;;;;;;;;;5094632;28;20027;-28
2024/01/16 14:13:54;;;;;;;7.20;1.75;;;;;;;;;;5094617;28;20020;-28
2024/01/16 14:16:19;;;;;;;3.67;1.33;;;;;;;;;;5094990;28;20039;-27
2024/01/16 14:18:44;;;;;;;3.70;1.30;;;;;;;;;;5095173;28;20016;-28
2024/01/16 14:21:10;;;;;;;5.20;1.25;;;;;;;;;;5095296;28;20016;-27
2024/01/16 14:23:35;;;;;;;5.25;1.20;;;;;;;;;;5094670;28;20435;-27
2024/01/16 14:26:00;;;;;;;4.65;1.13;;;;;;;;;;5094642;28;20020;-27
2024/01/16 14:28:27;;;;;;;7.13;1.52;;;;;;;;;;5095150;28;20042;-28
2024/01/16 14:30:52;;;;;;;5.50;1.08;;;;;;;;;;5094456;28;20020;-28
2024/01/16 14:33:17;;;;;;;6.88;1.50;;;;;;;;;;5092895;28;20073;-27